createdAt,value
2019-02-14T00:00:23.262Z,26.93
2019-02-14T00:02:50.738Z,27.50
2019-02-14T00:05:18.235Z,25.90
2019-02-14T00:07:45.721Z,24.00
2019-02-14T00:10:13.205Z,23.77
2019-02-14T00:12:40.661Z,23.77
2019-02-14T00:15:08.825Z,22.50
2019-02-14T00:17:36.299Z,22.43
2019-02-14T00:20:04.356Z,24.77
2019-02-14T00:22:31.868Z,26.40
2019-02-14T00:24:59.336Z,27.17
2019-02-14T00:27:26.800Z,24.33
2019-02-14T00:29:54.290Z,26.23
2019-02-14T00:32:21.774Z,23.03
2019-02-14T00:34:49.482Z,27.13
2019-02-14T00:37:17.133Z,24.47
2019-02-14T00:39:44.591Z,22.93
2019-02-14T00:42:12.077Z,28.07
2019-02-14T00:44:39.574Z,24.90
2019-02-14T00:47:07.048Z,25.57
2019-02-14T00:49:34.614Z,25.03
2019-02-14T00:52:02.156Z,26.70
2019-02-14T00:54:29.649Z,27.60
2019-02-14T00:56:57.111Z,24.03
2019-02-14T00:59:24.627Z,27.13
2019-02-14T01:01:52.102Z,28.30
2019-02-14T01:04:19.763Z,25.13
2019-02-14T01:06:47.205Z,23.83
2019-02-14T01:09:14.697Z,25.50
2019-02-14T01:11:42.156Z,27.10
2019-02-14T01:14:09.678Z,23.50
2019-02-14T01:16:37.188Z,25.63
2019-02-14T01:19:04.643Z,22.03
2019-02-14T01:21:32.104Z,19.43
2019-02-14T01:23:59.905Z,23.20
2019-02-14T01:26:27.376Z,30.37
2019-02-14T01:28:54.831Z,28.07
2019-02-14T01:31:22.328Z,25.07
2019-02-14T01:33:49.871Z,23.70
2019-02-14T01:36:17.318Z,23.83
2019-02-14T01:38:44.817Z,24.27
2019-02-14T01:41:12.291Z,29.93
2019-02-14T01:43:39.788Z,19.43
2019-02-14T01:46:07.250Z,20.77
2019-02-14T01:48:34.725Z,20.63
2019-02-14T01:51:02.183Z,18.83
2019-02-14T01:53:29.712Z,23.83
2019-02-14T01:55:57.185Z,23.13
2019-02-14T01:58:24.681Z,18.93
2019-02-14T02:00:52.162Z,18.97
2019-02-14T02:03:19.628Z,23.37
2019-02-14T02:05:50.858Z,20.10
2019-02-14T02:08:16.543Z,25.10
2019-02-14T02:10:44.031Z,21.33
2019-02-14T02:13:11.574Z,22.73
2019-02-14T02:15:39.072Z,22.23
2019-02-14T02:18:06.594Z,27.03
2019-02-14T02:20:34.152Z,23.50
2019-02-14T02:23:01.676Z,21.33
2019-02-14T02:25:29.131Z,19.97
2019-02-14T02:27:56.591Z,18.70
2019-02-14T02:30:24.088Z,23.43
2019-02-14T02:32:51.647Z,21.07
2019-02-14T02:35:19.126Z,22.30
2019-02-14T02:37:46.581Z,22.03
2019-02-14T02:40:14.086Z,28.47
2019-02-14T02:42:41.651Z,24.57
2019-02-14T02:45:10.770Z,22.23
2019-02-14T02:47:38.258Z,20.43
2019-02-14T02:50:07.632Z,23.73
2019-02-14T02:52:35.093Z,26.60
2019-02-14T02:55:02.602Z,23.03
2019-02-14T02:57:30.225Z,26.47
2019-02-14T02:59:57.717Z,23.83
2019-02-14T03:02:25.255Z,25.00
2019-02-14T03:04:52.727Z,27.57
2019-02-14T03:07:20.233Z,30.87
2019-02-14T03:09:48.299Z,26.47
2019-02-14T03:12:15.764Z,25.27
2019-02-14T03:14:43.251Z,25.10
2019-02-14T03:17:10.801Z,24.97
2019-02-14T03:19:38.640Z,20.40
2019-02-14T03:22:06.096Z,24.67
2019-02-14T03:24:33.641Z,21.57
2019-02-14T03:27:01.117Z,26.73
2019-02-14T03:29:28.581Z,20.57
2019-02-14T03:31:56.080Z,17.90
2019-02-14T03:34:23.538Z,20.20
2019-02-14T03:36:51.065Z,21.23
2019-02-14T03:39:18.555Z,22.83
2019-02-14T03:41:46.058Z,22.83
2019-02-14T03:44:13.584Z,18.97
2019-02-14T03:46:41.074Z,24.13
2019-02-14T03:49:08.560Z,20.83
2019-02-14T03:51:36.049Z,20.77
2019-02-14T03:54:03.527Z,20.57
2019-02-14T03:56:31.036Z,24.47
2019-02-14T03:58:58.486Z,22.97
2019-02-14T04:01:26.036Z,20.43
2019-02-14T04:03:53.541Z,19.93
2019-02-14T04:06:27.387Z,19.60
2019-02-14T04:08:51.627Z,18.37
2019-02-14T04:11:19.166Z,21.30
2019-02-14T04:13:46.702Z,21.13
2019-02-14T04:16:14.179Z,17.90
2019-02-14T04:18:41.645Z,18.13
2019-02-14T04:21:09.138Z,20.37
2019-02-14T04:23:36.592Z,17.03
2019-02-14T04:26:04.114Z,17.63
2019-02-14T04:28:31.994Z,17.37
2019-02-14T04:30:59.481Z,17.70
2019-02-14T04:33:26.962Z,19.37
2019-02-14T04:35:54.461Z,20.50
2019-02-14T04:38:21.953Z,16.97
2019-02-14T04:40:49.434Z,18.20
2019-02-14T04:43:16.929Z,16.50
2019-02-14T04:45:44.429Z,15.07
2019-02-14T04:48:11.902Z,17.87
2019-02-14T04:50:39.455Z,19.97
2019-02-14T04:53:06.889Z,21.83
2019-02-14T04:55:34.409Z,19.30
2019-02-14T04:58:02.169Z,24.57
2019-02-14T05:00:29.654Z,19.60
2019-02-14T05:02:57.113Z,23.50
2019-02-14T05:05:24.615Z,18.57
2019-02-14T05:07:52.141Z,18.70
2019-02-14T05:10:19.634Z,18.17
2019-02-14T05:12:47.102Z,17.73
2019-02-14T05:15:14.582Z,21.57
2019-02-14T05:17:42.238Z,21.50
2019-02-14T05:20:09.704Z,25.43
2019-02-14T05:22:37.152Z,22.23
2019-02-14T05:25:05.145Z,27.03
2019-02-14T05:27:32.690Z,20.33
2019-02-14T05:30:00.378Z,19.93
2019-02-14T05:32:27.902Z,16.33
2019-02-14T05:34:55.580Z,18.47
2019-02-14T05:37:23.045Z,20.90
2019-02-14T05:39:50.761Z,15.93
2019-02-14T05:42:18.208Z,17.97
2019-02-14T05:44:45.675Z,21.03
2019-02-14T05:47:13.173Z,20.70
2019-02-14T05:49:40.628Z,19.23
2019-02-14T05:52:08.305Z,15.97
2019-02-14T05:54:35.811Z,18.67
2019-02-14T05:57:03.335Z,21.20
2019-02-14T05:59:30.848Z,22.17
2019-02-14T06:01:58.348Z,20.33
2019-02-14T06:04:25.912Z,19.90
2019-02-14T06:07:00.771Z,23.53
2019-02-14T06:09:22.741Z,25.73
2019-02-14T06:11:50.281Z,18.27
2019-02-14T06:14:17.809Z,19.07
2019-02-14T06:16:45.282Z,23.07
2019-02-14T06:19:12.811Z,22.00
2019-02-14T06:21:40.326Z,21.47
2019-02-14T06:24:07.793Z,22.40
2019-02-14T06:26:35.323Z,27.00
2019-02-14T06:29:02.808Z,25.00
2019-02-14T06:31:30.276Z,21.70
2019-02-14T06:33:58.125Z,20.87
2019-02-14T06:36:25.609Z,17.83
2019-02-14T06:38:53.074Z,16.77
2019-02-14T06:41:20.626Z,17.80
2019-02-14T06:43:48.142Z,18.53
2019-02-14T06:46:15.686Z,15.17
2019-02-14T06:48:43.172Z,19.27
2019-02-14T06:51:10.679Z,23.00
2019-02-14T06:53:38.130Z,17.10
2019-02-14T06:56:05.671Z,19.30
2019-02-14T06:58:33.132Z,18.37
2019-02-14T07:01:00.617Z,20.13
2019-02-14T07:03:28.082Z,19.90
2019-02-14T07:05:55.815Z,18.43
2019-02-14T07:08:23.290Z,18.37
2019-02-14T07:10:50.729Z,22.20
2019-02-14T07:13:18.267Z,22.57
2019-02-14T07:15:45.800Z,19.43
2019-02-14T07:18:13.217Z,19.63
2019-02-14T07:20:40.737Z,18.50
2019-02-14T07:23:08.221Z,24.83
2019-02-14T07:25:35.720Z,21.07
2019-02-14T07:28:03.589Z,23.57
2019-02-14T07:30:31.047Z,23.33
2019-02-14T07:32:58.533Z,22.20
2019-02-14T07:35:26.024Z,23.07
2019-02-14T07:37:53.538Z,26.07
2019-02-14T07:40:20.995Z,30.90
2019-02-14T07:42:48.563Z,27.40
2019-02-14T07:45:16.060Z,25.17
2019-02-14T07:47:43.518Z,28.67
2019-02-14T07:50:11.051Z,29.77
2019-02-14T07:52:38.517Z,28.83
2019-02-14T07:55:06.998Z,25.77
2019-02-14T07:57:34.531Z,21.47
2019-02-14T08:00:02.027Z,20.33
2019-02-14T08:02:29.527Z,16.60
2019-02-14T08:04:57.033Z,17.90
2019-02-14T08:07:24.495Z,20.07
2019-02-14T08:09:52.002Z,15.90
2019-02-14T08:12:19.527Z,17.20
2019-02-14T08:14:47.048Z,17.60
2019-02-14T08:17:14.544Z,19.30
2019-02-14T08:19:42.039Z,14.47
2019-02-14T08:22:09.524Z,19.53
2019-02-14T08:24:36.981Z,15.00
2019-02-14T08:27:04.503Z,14.77
2019-02-14T08:29:32.084Z,13.87
2019-02-14T08:31:59.562Z,16.80
2019-02-14T08:34:27.688Z,15.77
2019-02-14T08:36:55.192Z,12.73
2019-02-14T08:39:22.684Z,15.17
2019-02-14T08:41:50.188Z,15.80
2019-02-14T08:44:17.636Z,14.93
2019-02-14T08:46:45.100Z,17.13
2019-02-14T08:49:12.649Z,18.97
2019-02-14T08:51:40.140Z,19.60
2019-02-14T08:54:07.620Z,17.27
2019-02-14T08:56:35.127Z,18.93
2019-02-14T08:59:02.584Z,17.27
2019-02-14T09:01:30.135Z,20.87
2019-02-14T09:03:57.774Z,23.63
2019-02-14T09:06:25.260Z,19.43
2019-02-14T09:08:52.828Z,20.10
2019-02-14T09:11:20.282Z,17.27
2019-02-14T09:13:47.834Z,19.27
2019-02-14T09:16:15.310Z,21.53
2019-02-14T09:18:42.784Z,17.50
2019-02-14T09:21:10.285Z,16.70
2019-02-14T09:23:37.755Z,19.20
2019-02-14T09:26:05.249Z,19.43
2019-02-14T09:28:32.726Z,19.57
2019-02-14T09:31:00.178Z,29.03
2019-02-14T09:33:27.695Z,22.77
2019-02-14T09:35:55.190Z,19.43
2019-02-14T09:38:22.667Z,20.67
2019-02-14T09:40:50.192Z,22.07
2019-02-14T09:43:17.717Z,21.93
2019-02-14T09:45:45.202Z,21.80
2019-02-14T09:48:12.803Z,19.97
2019-02-14T09:50:40.338Z,18.50
2019-02-14T09:53:07.849Z,20.27
2019-02-14T09:55:35.314Z,21.77
2019-02-14T09:58:02.833Z,19.70
2019-02-14T10:00:30.349Z,17.63
2019-02-14T10:02:57.836Z,20.37
2019-02-14T10:05:25.358Z,22.03
2019-02-14T10:07:52.864Z,18.20
2019-02-14T10:10:20.464Z,18.87
2019-02-14T10:12:47.965Z,19.67
2019-02-14T10:15:15.966Z,20.77
2019-02-14T10:17:43.480Z,24.77
2019-02-14T10:20:12.879Z,18.03
2019-02-14T10:22:40.503Z,21.13
2019-02-14T10:25:08.008Z,18.17
2019-02-14T10:27:35.726Z,21.00
2019-02-14T10:30:03.813Z,20.07
2019-02-14T10:32:31.283Z,17.73
2019-02-14T10:34:58.780Z,22.67
2019-02-14T10:37:26.294Z,19.63
2019-02-14T10:39:53.863Z,19.30
2019-02-14T10:42:21.238Z,17.40
2019-02-14T10:44:48.777Z,18.63
2019-02-14T10:47:16.248Z,16.23
2019-02-14T10:49:43.721Z,19.03
2019-02-14T10:52:11.224Z,17.23
2019-02-14T10:54:38.704Z,15.87
2019-02-14T10:57:06.212Z,18.47
2019-02-14T10:59:33.728Z,20.20
2019-02-14T11:02:01.178Z,15.77
2019-02-14T11:04:28.706Z,17.80
2019-02-14T11:06:56.174Z,17.77
2019-02-14T11:09:23.677Z,16.20
2019-02-14T11:11:51.160Z,17.00
2019-02-14T11:14:27.462Z,17.97
2019-02-14T11:16:49.110Z,15.70
2019-02-14T11:19:16.615Z,17.00
2019-02-14T11:21:44.027Z,20.17
2019-02-14T11:24:11.502Z,17.70
2019-02-14T11:26:38.870Z,19.07
2019-02-14T11:29:06.418Z,39.20
2019-02-14T11:31:34.727Z,16.20
2019-02-14T11:34:02.442Z,16.90
2019-02-14T11:36:29.922Z,18.33
2019-02-14T11:38:57.666Z,18.03
2019-02-14T11:41:25.122Z,16.77
2019-02-14T11:43:52.613Z,18.83
2019-02-14T11:46:20.142Z,15.20
2019-02-14T11:48:48.012Z,16.13
2019-02-14T11:51:15.625Z,16.10
2019-02-14T11:53:43.098Z,16.10
2019-02-14T11:56:10.570Z,11.13
2019-02-14T11:58:38.062Z,12.13
2019-02-14T12:01:05.532Z,14.97
2019-02-14T12:03:33.043Z,14.77
2019-02-14T12:06:00.521Z,11.23
2019-02-14T12:08:28.008Z,11.20
2019-02-14T12:10:55.536Z,13.00
2019-02-14T12:13:22.991Z,11.20
2019-02-14T12:15:50.525Z,11.67
2019-02-14T12:18:18.035Z,11.87
2019-02-14T12:20:45.509Z,11.80
2019-02-14T12:23:13.011Z,12.73
2019-02-14T12:25:40.532Z,15.07
2019-02-14T12:28:08.039Z,12.73
2019-02-14T12:30:35.508Z,11.13
2019-02-14T12:33:02.989Z,13.63
2019-02-14T12:35:30.453Z,15.40
2019-02-14T12:37:57.938Z,14.43
2019-02-14T12:40:25.488Z,17.33
2019-02-14T12:42:52.951Z,18.83
2019-02-14T12:45:23.618Z,17.73
2019-02-14T12:47:49.783Z,14.10
2019-02-14T12:50:17.278Z,15.57
2019-02-14T12:52:44.749Z,11.70
2019-02-14T12:55:12.271Z,12.87
2019-02-14T12:57:39.776Z,16.73
2019-02-14T13:00:11.025Z,14.77
2019-02-14T13:02:38.745Z,15.03
2019-02-14T13:05:07.408Z,14.67
2019-02-14T13:07:34.877Z,17.60
2019-02-14T13:10:02.765Z,13.97
2019-02-14T13:12:30.266Z,14.97
2019-02-14T13:14:57.746Z,12.10
2019-02-14T13:17:25.226Z,14.57
2019-02-14T13:19:52.723Z,11.50
2019-02-14T13:22:20.166Z,14.03
2019-02-14T13:24:47.652Z,14.53
2019-02-14T13:27:15.155Z,13.77
2019-02-14T13:29:42.627Z,13.17
2019-02-14T13:32:10.119Z,18.43
2019-02-14T13:34:37.644Z,14.20
2019-02-14T13:37:05.996Z,12.73
2019-02-14T13:39:33.716Z,13.37
2019-02-14T13:42:01.261Z,14.17
2019-02-14T13:44:29.011Z,12.90
2019-02-14T13:46:56.498Z,13.37
2019-02-14T13:49:24.124Z,15.63
2019-02-14T13:51:51.619Z,18.37
2019-02-14T13:54:19.198Z,14.07
2019-02-14T13:56:53.858Z,15.03
2019-02-14T13:59:16.011Z,13.00
2019-02-14T14:01:43.533Z,14.23
2019-02-14T14:04:10.999Z,13.33
2019-02-14T14:06:38.464Z,14.07
2019-02-14T14:09:08.531Z,14.07
2019-02-14T14:11:36.090Z,15.97
2019-02-14T14:14:03.549Z,14.47
2019-02-14T14:16:31.019Z,12.57
2019-02-14T14:19:06.182Z,11.83
2019-02-14T14:21:27.810Z,14.60
2019-02-14T14:23:55.329Z,13.03
2019-02-14T14:26:22.811Z,11.37
2019-02-14T14:28:50.318Z,13.40
2019-02-14T14:31:17.816Z,15.43
2019-02-14T14:33:45.290Z,13.73
2019-02-14T14:36:12.740Z,14.60
2019-02-14T14:38:40.380Z,12.77
2019-02-14T14:41:07.926Z,15.50
2019-02-14T14:43:57.933Z,12.03
2019-02-14T14:46:32.197Z,11.63
2019-02-14T14:48:59.690Z,14.67
2019-02-14T14:51:27.193Z,13.90
2019-02-14T14:53:54.692Z,14.43
2019-02-14T14:56:22.184Z,13.57
2019-02-14T14:58:52.454Z,13.97
2019-02-14T15:01:19.964Z,14.03
2019-02-14T15:03:47.460Z,9.97
2019-02-14T15:06:15.000Z,9.53
2019-02-14T15:08:42.705Z,16.13
2019-02-14T15:11:10.212Z,10.97
2019-02-14T15:13:37.690Z,11.77
2019-02-14T15:16:05.159Z,13.33
2019-02-14T15:18:32.688Z,12.43
2019-02-14T15:21:00.155Z,13.10
2019-02-14T15:23:27.698Z,8.60
2019-02-14T15:25:55.183Z,11.17
2019-02-14T15:28:22.669Z,12.03
2019-02-14T15:30:50.203Z,9.07
2019-02-14T15:33:17.723Z,8.57
2019-02-14T15:35:45.201Z,8.43
2019-02-14T15:38:12.714Z,11.53
2019-02-14T15:40:40.240Z,10.80
2019-02-14T15:43:07.732Z,11.67
2019-02-14T15:45:35.595Z,8.03
2019-02-14T15:48:03.046Z,9.17
2019-02-14T15:50:32.067Z,10.13
2019-02-14T15:52:59.625Z,11.97
2019-02-14T15:55:27.127Z,13.57
2019-02-14T15:57:54.601Z,9.97
2019-02-14T16:00:22.298Z,14.97
2019-02-14T16:02:50.772Z,12.30
2019-02-14T16:05:19.191Z,11.53
2019-02-14T16:07:46.669Z,11.30
2019-02-14T16:10:18.526Z,16.90
2019-02-14T16:12:45.734Z,9.33
2019-02-14T16:15:12.785Z,9.97
2019-02-14T16:17:40.325Z,10.10
2019-02-14T16:20:07.804Z,11.70
2019-02-14T16:22:35.256Z,10.77
2019-02-14T16:25:04.495Z,12.90
2019-02-14T16:27:32.322Z,12.97
2019-02-14T16:29:59.784Z,12.50
2019-02-14T16:32:27.302Z,13.80
2019-02-14T16:34:54.853Z,14.53
2019-02-14T16:37:22.374Z,20.27
2019-02-14T16:39:51.835Z,16.77
2019-02-14T16:42:19.304Z,11.00
2019-02-14T16:44:46.819Z,13.00
2019-02-14T16:47:14.307Z,12.73
2019-02-14T16:49:42.004Z,17.17
2019-02-14T16:52:09.525Z,13.40
2019-02-14T16:54:37.046Z,16.70
2019-02-14T16:57:04.563Z,18.33
2019-02-14T16:59:32.136Z,15.27
2019-02-14T17:01:59.632Z,16.97
2019-02-14T17:04:27.154Z,15.33
2019-02-14T17:06:54.710Z,16.83
2019-02-14T17:09:22.584Z,10.80
2019-02-14T17:11:50.053Z,9.03
2019-02-14T17:14:17.571Z,14.87
2019-02-14T17:16:45.123Z,13.43
2019-02-14T17:19:12.661Z,11.70
2019-02-14T17:21:40.227Z,19.80
2019-02-14T17:24:07.688Z,16.47
2019-02-14T17:26:35.262Z,21.80
2019-02-14T17:29:02.718Z,12.23
2019-02-14T17:31:30.479Z,11.90
2019-02-14T17:33:58.043Z,13.67
2019-02-14T17:36:25.554Z,19.43
2019-02-14T17:38:53.083Z,17.20
2019-02-14T17:41:20.589Z,17.23
2019-02-14T17:43:48.144Z,19.57
2019-02-14T17:46:15.669Z,18.77
2019-02-14T17:48:43.154Z,16.43
2019-02-14T17:51:10.740Z,15.93
2019-02-14T17:53:38.281Z,15.03
2019-02-14T17:56:05.797Z,14.20
2019-02-14T17:58:33.552Z,20.53
2019-02-14T18:01:01.285Z,12.87
2019-02-14T18:03:28.828Z,17.37
2019-02-14T18:05:56.355Z,12.83
2019-02-14T18:08:23.879Z,18.40
2019-02-14T18:10:54.988Z,16.13
2019-02-14T18:13:20.713Z,19.70
2019-02-14T18:15:48.223Z,18.37
2019-02-14T18:18:15.775Z,23.23
2019-02-14T18:20:43.330Z,18.23
2019-02-14T18:23:11.346Z,21.00
2019-02-14T18:25:38.801Z,16.33
2019-02-14T18:28:06.295Z,16.00
2019-02-14T18:30:33.846Z,20.50
2019-02-14T18:33:01.357Z,22.20
2019-02-14T18:35:28.848Z,23.80
2019-02-14T18:37:56.375Z,23.10
2019-02-14T18:40:23.908Z,22.63
2019-02-14T18:42:51.399Z,21.00
2019-02-14T18:45:18.864Z,20.53
2019-02-14T18:47:46.401Z,19.13
2019-02-14T18:50:13.872Z,17.17
2019-02-14T18:52:41.377Z,21.90
2019-02-14T18:55:09.039Z,19.77
2019-02-14T18:57:36.501Z,16.33
2019-02-14T19:00:07.700Z,23.03
2019-02-14T19:02:35.185Z,21.67
2019-02-14T19:05:02.962Z,24.20
2019-02-14T19:07:31.616Z,20.07
2019-02-14T19:09:59.168Z,19.00
2019-02-14T19:12:26.677Z,23.50
2019-02-14T19:14:54.208Z,20.67
2019-02-14T19:17:21.694Z,21.13
2019-02-14T19:19:51.874Z,24.10
2019-02-14T19:22:19.363Z,20.10
2019-02-14T19:24:46.970Z,22.37
2019-02-14T19:27:14.481Z,24.37
2019-02-14T19:29:41.961Z,21.87
2019-02-14T19:32:09.492Z,16.53
2019-02-14T19:34:36.968Z,19.73
2019-02-14T19:37:04.461Z,16.13
2019-02-14T19:39:31.983Z,20.03
2019-02-14T19:42:00.562Z,18.53
2019-02-14T19:44:28.068Z,22.20
2019-02-14T19:46:55.559Z,22.63
2019-02-14T19:49:23.077Z,17.63
2019-02-14T19:51:50.682Z,19.43
2019-02-14T19:54:18.184Z,22.40
2019-02-14T19:56:45.722Z,22.87
2019-02-14T19:59:13.198Z,26.00
2019-02-14T20:01:40.675Z,27.57
2019-02-14T20:04:08.190Z,29.23
2019-02-14T20:06:35.865Z,28.67
2019-02-14T20:09:04.869Z,29.00
2019-02-14T20:11:36.565Z,25.23
2019-02-14T20:14:01.708Z,25.00
2019-02-14T20:16:29.186Z,25.57
2019-02-14T20:18:56.698Z,24.90
2019-02-14T20:21:24.239Z,26.33
2019-02-14T20:23:51.744Z,22.60
2019-02-14T20:26:19.480Z,26.07
2019-02-14T20:28:46.963Z,29.67
2019-02-14T20:31:14.469Z,26.03
2019-02-14T20:33:41.977Z,25.97
2019-02-14T20:36:09.499Z,25.93
2019-02-14T20:38:36.955Z,25.10
2019-02-14T20:41:04.435Z,24.20
2019-02-14T20:43:31.990Z,27.40
2019-02-14T20:45:59.605Z,19.87
2019-02-14T20:48:27.102Z,27.37
2019-02-14T20:50:54.647Z,23.63
2019-02-14T20:53:22.241Z,26.23
2019-02-14T20:55:49.799Z,25.67
2019-02-14T20:58:17.289Z,22.53
2019-02-14T21:00:44.846Z,22.67
2019-02-14T21:03:12.321Z,26.97
2019-02-14T21:05:39.881Z,23.83
2019-02-14T21:08:07.388Z,27.60
2019-02-14T21:10:34.941Z,29.57
2019-02-14T21:13:02.440Z,31.43
2019-02-14T21:15:29.938Z,28.70
2019-02-14T21:17:57.454Z,26.37
2019-02-14T21:20:25.023Z,26.93
2019-02-14T21:22:52.458Z,24.97
2019-02-14T21:25:22.874Z,24.50
2019-02-14T21:27:49.420Z,24.07
2019-02-14T21:30:16.929Z,27.77
2019-02-14T21:32:44.425Z,24.03
2019-02-14T21:35:11.969Z,24.13
2019-02-14T21:37:39.505Z,24.53
2019-02-14T21:40:08.782Z,29.53
2019-02-14T21:42:36.239Z,27.93
2019-02-14T21:45:04.604Z,24.93
2019-02-14T21:47:32.112Z,28.47
2019-02-14T21:49:59.603Z,28.40
2019-02-14T21:52:27.109Z,24.23
2019-02-14T21:54:54.607Z,25.97
2019-02-14T21:57:22.130Z,27.10
2019-02-14T21:59:49.669Z,26.13
2019-02-14T22:02:17.228Z,23.77
2019-02-14T22:04:45.709Z,25.40
2019-02-14T22:07:13.179Z,26.40
2019-02-14T22:09:40.754Z,25.73
2019-02-14T22:12:08.259Z,26.07
2019-02-14T22:14:35.758Z,30.73
2019-02-14T22:17:03.308Z,29.67
2019-02-14T22:19:31.047Z,29.20
2019-02-14T22:21:58.547Z,35.50
2019-02-14T22:24:26.004Z,25.87
2019-02-14T22:26:53.545Z,29.17
2019-02-14T22:29:21.065Z,32.00
2019-02-14T22:31:48.543Z,31.93
2019-02-14T22:34:16.063Z,32.47
2019-02-14T22:36:43.549Z,32.17
2019-02-14T22:39:11.106Z,31.40
2019-02-14T22:41:38.736Z,40.03
2019-02-14T22:44:06.272Z,31.27
2019-02-14T22:46:33.829Z,33.63
2019-02-14T22:49:01.297Z,31.83
2019-02-14T22:51:28.774Z,33.33
2019-02-14T22:53:57.338Z,40.53
2019-02-14T22:56:24.825Z,38.10
2019-02-14T22:58:52.373Z,36.33
2019-02-14T23:01:19.878Z,35.10
2019-02-14T23:03:47.405Z,35.07
2019-02-14T23:06:14.956Z,36.37
2019-02-14T23:08:42.433Z,34.53
2019-02-14T23:11:09.913Z,38.87
2019-02-14T23:13:37.425Z,33.23
2019-02-14T23:16:04.942Z,42.97
2019-02-14T23:18:32.454Z,34.17
2019-02-14T23:20:59.948Z,34.83
2019-02-14T23:23:27.420Z,42.00
2019-02-14T23:25:54.925Z,46.13
2019-02-14T23:28:22.461Z,37.77
2019-02-14T23:30:49.970Z,33.37
2019-02-14T23:33:17.493Z,35.00
2019-02-14T23:35:45.023Z,43.73
2019-02-14T23:38:12.484Z,38.97
2019-02-14T23:40:39.986Z,45.07
2019-02-14T23:43:07.547Z,38.60
2019-02-14T23:45:37.386Z,37.87
2019-02-14T23:48:04.874Z,44.23
2019-02-14T23:50:32.380Z,39.80
2019-02-14T23:52:59.952Z,38.30
2019-02-14T23:55:27.436Z,37.83
2019-02-14T23:57:55.075Z,36.67
